Yorkana, Pennsylvania
Current Conditions -  °F | °C
As of 6:56 PM on Friday 24 Oct 2014 (Local Time) from KMDT Reporting Station
Broken Clouds Broken Clouds  
Wind Chill: 58°   Ceiling: 22000
Heat Index: 58°   Visibility: 10mi
Dew Point: 40°   Wind: 8mph
Humidity: 51%   Direction: 300°WNW
Pressure: 29.88"   Gusts: NA
Location:  40.0152°N, 76.5974°W
Report Text: KMDT 242256Z 30007KT 10SM BKN220 14/04 A2988 RMK AO2 SLP119 T01440044
Loading
Personal Weather Stations






























Interactive Weather Map
Tropical Storm Tracking
New forecast layout! Learn more

10-Day Weather Forecast

Advertisements
Track Severe Weather on mobile